sensor_id;sensor_type;location;lat;lon;timestamp;P1;durP1;ratioP1;P2;durP2;ratioP2
33826;SDS011;20128;45.582;5.298;2022-11-15T00:01:25;18.50;;;10.13;;
33826;SDS011;20128;45.582;5.298;2022-11-15T00:03:51;14.55;;;9.38;;
33826;SDS011;20128;45.582;5.298;2022-11-15T00:06:17;19.75;;;9.90;;
33826;SDS011;20128;45.582;5.298;2022-11-15T00:08:43;15.85;;;9.65;;
33826;SDS011;20128;45.582;5.298;2022-11-15T00:11:09;20.23;;;9.75;;
33826;SDS011;20128;45.582;5.298;2022-11-15T00:13:37;18.63;;;8.45;;
33826;SDS011;20128;45.582;5.298;2022-11-15T00:16:02;17.85;;;9.07;;
33826;SDS011;20128;45.582;5.298;2022-11-15T00:18:29;15.02;;;7.88;;
33826;SDS011;20128;45.582;5.298;2022-11-15T00:20:55;16.33;;;9.13;;
33826;SDS011;20128;45.582;5.298;2022-11-15T00:23:27;14.40;;;8.30;;
33826;SDS011;20128;45.582;5.298;2022-11-15T00:25:56;21.63;;;8.30;;
33826;SDS011;20128;45.582;5.298;2022-11-15T00:28:23;12.05;;;7.68;;
33826;SDS011;20128;45.582;5.298;2022-11-15T00:30:49;17.38;;;8.52;;
33826;SDS011;20128;45.582;5.298;2022-11-15T00:33:15;14.77;;;8.57;;
33826;SDS011;20128;45.582;5.298;2022-11-15T00:35:41;17.80;;;10.45;;
33826;SDS011;20128;45.582;5.298;2022-11-15T00:38:06;29.35;;;18.38;;
33826;SDS011;20128;45.582;5.298;2022-11-15T00:40:32;18.63;;;11.63;;
33826;SDS011;20128;45.582;5.298;2022-11-15T00:42:58;18.13;;;10.15;;
33826;SDS011;20128;45.582;5.298;2022-11-15T00:45:23;17.92;;;10.00;;
33826;SDS011;20128;45.582;5.298;2022-11-15T00:47:49;19.20;;;10.23;;
33826;SDS011;20128;45.582;5.298;2022-11-15T00:50:15;22.15;;;10.60;;
33826;SDS011;20128;45.582;5.298;2022-11-15T00:52:42;14.32;;;9.88;;
33826;SDS011;20128;45.582;5.298;2022-11-15T00:55:17;14.93;;;8.88;;
33826;SDS011;20128;45.582;5.298;2022-11-15T00:57:44;19.00;;;9.80;;
33826;SDS011;20128;45.582;5.298;2022-11-15T01:00:11;14.43;;;9.63;;
33826;SDS011;20128;45.582;5.298;2022-11-15T01:02:37;19.02;;;9.95;;
33826;SDS011;20128;45.582;5.298;2022-11-15T01:05:03;18.30;;;10.82;;
33826;SDS011;20128;45.582;5.298;2022-11-15T01:07:29;17.38;;;10.38;;
33826;SDS011;20128;45.582;5.298;2022-11-15T01:09:55;14.15;;;8.43;;
33826;SDS011;20128;45.582;5.298;2022-11-15T01:12:20;17.38;;;8.55;;
33826;SDS011;20128;45.582;5.298;2022-11-15T01:14:46;15.80;;;8.60;;
33826;SDS011;20128;45.582;5.298;2022-11-15T01:17:12;15.23;;;9.38;;
33826;SDS011;20128;45.582;5.298;2022-11-15T01:19:37;15.48;;;9.10;;
33826;SDS011;20128;45.582;5.298;2022-11-15T01:22:03;14.75;;;8.98;;
33826;SDS011;20128;45.582;5.298;2022-11-15T01:24:29;17.98;;;9.15;;
33826;SDS011;20128;45.582;5.298;2022-11-15T01:26:54;16.10;;;8.35;;
33826;SDS011;20128;45.582;5.298;2022-11-15T01:29:20;11.88;;;8.30;;
33826;SDS011;20128;45.582;5.298;2022-11-15T01:31:46;14.00;;;8.82;;
33826;SDS011;20128;45.582;5.298;2022-11-15T01:34:11;13.73;;;8.77;;
33826;SDS011;20128;45.582;5.298;2022-11-15T01:36:37;18.25;;;9.70;;
33826;SDS011;20128;45.582;5.298;2022-11-15T01:39:03;19.65;;;10.05;;
33826;SDS011;20128;45.582;5.298;2022-11-15T01:41:30;16.88;;;9.90;;
33826;SDS011;20128;45.582;5.298;2022-11-15T01:44:30;20.15;;;9.30;;
33826;SDS011;20128;45.582;5.298;2022-11-15T01:47:02;15.32;;;8.88;;
33826;SDS011;20128;45.582;5.298;2022-11-15T01:49:32;13.48;;;8.90;;
33826;SDS011;20128;45.582;5.298;2022-11-15T01:52:00;15.55;;;9.35;;
33826;SDS011;20128;45.582;5.298;2022-11-15T01:54:29;16.80;;;9.20;;
33826;SDS011;20128;45.582;5.298;2022-11-15T01:56:59;14.82;;;8.25;;
33826;SDS011;20128;45.582;5.298;2022-11-15T01:59:29;12.53;;;7.47;;
33826;SDS011;20128;45.582;5.298;2022-11-15T02:01:55;14.70;;;7.65;;
33826;SDS011;20128;45.582;5.298;2022-11-15T02:04:28;14.18;;;7.72;;
33826;SDS011;20128;45.582;5.298;2022-11-15T02:06:56;13.88;;;8.20;;
33826;SDS011;20128;45.582;5.298;2022-11-15T02:09:22;17.00;;;8.10;;
33826;SDS011;20128;45.582;5.298;2022-11-15T02:11:48;13.38;;;8.45;;
33826;SDS011;20128;45.582;5.298;2022-11-15T02:14:15;14.60;;;9.88;;
33826;SDS011;20128;45.582;5.298;2022-11-15T02:22:07;14.45;;;8.57;;
33826;SDS011;20128;45.582;5.298;2022-11-15T02:24:59;14.80;;;8.27;;
33826;SDS011;20128;45.582;5.298;2022-11-15T02:35:36;12.50;;;6.13;;
33826;SDS011;20128;45.582;5.298;2022-11-15T02:38:19;16.45;;;7.43;;
33826;SDS011;20128;45.582;5.298;2022-11-15T02:40:57;11.90;;;7.15;;
33826;SDS011;20128;45.582;5.298;2022-11-15T02:43:51;10.40;;;5.85;;
33826;SDS011;20128;45.582;5.298;2022-11-15T02:49:20;8.57;;;5.40;;
33826;SDS011;20128;45.582;5.298;2022-11-15T02:51:48;10.65;;;5.50;;
33826;SDS011;20128;45.582;5.298;2022-11-15T02:54:23;11.27;;;5.25;;
33826;SDS011;20128;45.582;5.298;2022-11-15T02:56:51;9.38;;;5.18;;
33826;SDS011;20128;45.582;5.298;2022-11-15T02:59:43;8.05;;;5.28;;
33826;SDS011;20128;45.582;5.298;2022-11-15T03:07:45;8.70;;;5.07;;
33826;SDS011;20128;45.582;5.298;2022-11-15T03:10:32;8.23;;;4.50;;
33826;SDS011;20128;45.582;5.298;2022-11-15T03:13:19;11.55;;;5.05;;
33826;SDS011;20128;45.582;5.298;2022-11-15T03:15:54;9.63;;;4.38;;
33826;SDS011;20128;45.582;5.298;2022-11-15T03:18:33;5.72;;;4.10;;
33826;SDS011;20128;45.582;5.298;2022-11-15T03:21:04;7.88;;;4.30;;
33826;SDS011;20128;45.582;5.298;2022-11-15T03:23:32;7.03;;;4.03;;
33826;SDS011;20128;45.582;5.298;2022-11-15T03:25:59;11.82;;;4.43;;
33826;SDS011;20128;45.582;5.298;2022-11-15T03:28:34;7.93;;;4.22;;
33826;SDS011;20128;45.582;5.298;2022-11-15T03:31:08;8.32;;;4.13;;
33826;SDS011;20128;45.582;5.298;2022-11-15T03:33:57;8.65;;;4.18;;
33826;SDS011;20128;45.582;5.298;2022-11-15T03:36:24;10.15;;;3.63;;
33826;SDS011;20128;45.582;5.298;2022-11-15T03:38:52;8.07;;;3.90;;
33826;SDS011;20128;45.582;5.298;2022-11-15T03:41:23;13.10;;;4.35;;
33826;SDS011;20128;45.582;5.298;2022-11-15T03:47:20;5.57;;;3.80;;
33826;SDS011;20128;45.582;5.298;2022-11-15T03:49:55;6.00;;;3.72;;
33826;SDS011;20128;45.582;5.298;2022-11-15T03:52:30;4.90;;;3.55;;
33826;SDS011;20128;45.582;5.298;2022-11-15T03:54:58;6.78;;;3.95;;
33826;SDS011;20128;45.582;5.298;2022-11-15T03:57:26;11.00;;;3.90;;
33826;SDS011;20128;45.582;5.298;2022-11-15T03:59:52;5.75;;;3.90;;
33826;SDS011;20128;45.582;5.298;2022-11-15T04:02:17;6.85;;;3.60;;
33826;SDS011;20128;45.582;5.298;2022-11-15T04:04:43;5.00;;;3.70;;
33826;SDS011;20128;45.582;5.298;2022-11-15T04:07:08;5.05;;;3.40;;
33826;SDS011;20128;45.582;5.298;2022-11-15T04:09:34;5.50;;;3.53;;
33826;SDS011;20128;45.582;5.298;2022-11-15T04:12:20;5.55;;;3.65;;
33826;SDS011;20128;45.582;5.298;2022-11-15T04:14:55;5.35;;;3.60;;
33826;SDS011;20128;45.582;5.298;2022-11-15T04:17:36;4.88;;;3.47;;
33826;SDS011;20128;45.582;5.298;2022-11-15T04:20:07;5.03;;;3.60;;
33826;SDS011;20128;45.582;5.298;2022-11-15T04:22:55;7.32;;;4.32;;
33826;SDS011;20128;45.582;5.298;2022-11-15T04:25:41;5.05;;;3.15;;
33826;SDS011;20128;45.582;5.298;2022-11-15T04:28:07;7.78;;;2.75;;
33826;SDS011;20128;45.582;5.298;2022-11-15T04:30:33;4.32;;;3.05;;
33826;SDS011;20128;45.582;5.298;2022-11-15T04:32:59;5.97;;;2.90;;
33826;SDS011;20128;45.582;5.298;2022-11-15T04:35:24;4.85;;;3.60;;
33826;SDS011;20128;45.582;5.298;2022-11-15T04:37:50;4.63;;;3.20;;
33826;SDS011;20128;45.582;5.298;2022-11-15T04:40:16;6.00;;;3.22;;
33826;SDS011;20128;45.582;5.298;2022-11-15T04:42:42;7.32;;;3.83;;
33826;SDS011;20128;45.582;5.298;2022-11-15T04:45:08;6.68;;;3.35;;
33826;SDS011;20128;45.582;5.298;2022-11-15T04:47:34;7.47;;;3.60;;
33826;SDS011;20128;45.582;5.298;2022-11-15T04:50:00;6.35;;;3.50;;
33826;SDS011;20128;45.582;5.298;2022-11-15T04:52:26;3.90;;;2.88;;
33826;SDS011;20128;45.582;5.298;2022-11-15T04:54:53;4.70;;;2.78;;
33826;SDS011;20128;45.582;5.298;2022-11-15T04:57:18;5.47;;;3.15;;
33826;SDS011;20128;45.582;5.298;2022-11-15T04:59:44;3.72;;;3.08;;
33826;SDS011;20128;45.582;5.298;2022-11-15T05:02:10;5.22;;;3.08;;
33826;SDS011;20128;45.582;5.298;2022-11-15T05:04:35;5.22;;;4.00;;
33826;SDS011;20128;45.582;5.298;2022-11-15T05:07:01;10.18;;;5.20;;
33826;SDS011;20128;45.582;5.298;2022-11-15T05:09:29;11.65;;;6.32;;
33826;SDS011;20128;45.582;5.298;2022-11-15T05:11:54;6.88;;;4.90;;
33826;SDS011;20128;45.582;5.298;2022-11-15T05:14:20;10.38;;;4.80;;
33826;SDS011;20128;45.582;5.298;2022-11-15T05:16:46;4.93;;;4.40;;
33826;SDS011;20128;45.582;5.298;2022-11-15T05:19:12;5.60;;;4.03;;
33826;SDS011;20128;45.582;5.298;2022-11-15T05:21:38;6.65;;;4.10;;
33826;SDS011;20128;45.582;5.298;2022-11-15T05:24:04;5.18;;;3.80;;
33826;SDS011;20128;45.582;5.298;2022-11-15T05:26:30;6.85;;;4.20;;
33826;SDS011;20128;45.582;5.298;2022-11-15T05:28:57;6.38;;;3.95;;
33826;SDS011;20128;45.582;5.298;2022-11-15T05:31:24;6.47;;;4.30;;
33826;SDS011;20128;45.582;5.298;2022-11-15T05:33:51;6.00;;;4.05;;
33826;SDS011;20128;45.582;5.298;2022-11-15T05:38:56;7.80;;;3.80;;
33826;SDS011;20128;45.582;5.298;2022-11-15T05:41:25;6.97;;;4.53;;
33826;SDS011;20128;45.582;5.298;2022-11-15T05:43:56;6.57;;;4.95;;
33826;SDS011;20128;45.582;5.298;2022-11-15T05:46:23;13.63;;;4.88;;
33826;SDS011;20128;45.582;5.298;2022-11-15T05:48:49;8.85;;;4.38;;
33826;SDS011;20128;45.582;5.298;2022-11-15T05:51:16;8.98;;;4.50;;
33826;SDS011;20128;45.582;5.298;2022-11-15T05:53:44;6.82;;;4.57;;
33826;SDS011;20128;45.582;5.298;2022-11-15T05:56:10;7.35;;;5.07;;
33826;SDS011;20128;45.582;5.298;2022-11-15T05:58:37;9.15;;;5.18;;
33826;SDS011;20128;45.582;5.298;2022-11-15T06:01:03;11.60;;;5.35;;
33826;SDS011;20128;45.582;5.298;2022-11-15T06:03:29;8.93;;;5.28;;
33826;SDS011;20128;45.582;5.298;2022-11-15T06:05:55;10.68;;;7.05;;
33826;SDS011;20128;45.582;5.298;2022-11-15T06:08:21;11.27;;;7.40;;
33826;SDS011;20128;45.582;5.298;2022-11-15T06:10:47;13.43;;;7.40;;
33826;SDS011;20128;45.582;5.298;2022-11-15T06:13:13;17.88;;;7.30;;
33826;SDS011;20128;45.582;5.298;2022-11-15T06:15:38;11.80;;;7.10;;
33826;SDS011;20128;45.582;5.298;2022-11-15T06:18:04;12.10;;;7.50;;
33826;SDS011;20128;45.582;5.298;2022-11-15T06:20:30;11.02;;;6.32;;
33826;SDS011;20128;45.582;5.298;2022-11-15T06:22:56;10.40;;;7.05;;
33826;SDS011;20128;45.582;5.298;2022-11-15T06:25:27;9.20;;;6.30;;
33826;SDS011;20128;45.582;5.298;2022-11-15T06:27:54;14.43;;;6.30;;
33826;SDS011;20128;45.582;5.298;2022-11-15T06:30:20;9.23;;;5.72;;
33826;SDS011;20128;45.582;5.298;2022-11-15T06:32:47;10.50;;;6.38;;
33826;SDS011;20128;45.582;5.298;2022-11-15T06:35:13;9.98;;;6.72;;
33826;SDS011;20128;45.582;5.298;2022-11-15T06:37:39;11.93;;;7.88;;
33826;SDS011;20128;45.582;5.298;2022-11-15T06:40:06;10.75;;;7.32;;
33826;SDS011;20128;45.582;5.298;2022-11-15T06:42:33;13.93;;;7.82;;
33826;SDS011;20128;45.582;5.298;2022-11-15T06:44:59;12.10;;;7.45;;
33826;SDS011;20128;45.582;5.298;2022-11-15T06:47:24;14.00;;;8.45;;
33826;SDS011;20128;45.582;5.298;2022-11-15T06:49:51;10.95;;;7.65;;
33826;SDS011;20128;45.582;5.298;2022-11-15T06:52:18;13.43;;;6.85;;
33826;SDS011;20128;45.582;5.298;2022-11-15T06:54:47;14.90;;;7.70;;
33826;SDS011;20128;45.582;5.298;2022-11-15T06:57:13;16.00;;;7.40;;
33826;SDS011;20128;45.582;5.298;2022-11-15T06:59:38;11.52;;;7.45;;
33826;SDS011;20128;45.582;5.298;2022-11-15T07:02:04;10.13;;;6.82;;
33826;SDS011;20128;45.582;5.298;2022-11-15T07:04:30;14.35;;;8.88;;
33826;SDS011;20128;45.582;5.298;2022-11-15T07:06:55;23.90;;;9.27;;
33826;SDS011;20128;45.582;5.298;2022-11-15T07:09:21;18.17;;;9.32;;
33826;SDS011;20128;45.582;5.298;2022-11-15T07:11:47;16.52;;;7.78;;
33826;SDS011;20128;45.582;5.298;2022-11-15T07:14:12;15.38;;;7.75;;
33826;SDS011;20128;45.582;5.298;2022-11-15T07:16:38;12.68;;;6.82;;
33826;SDS011;20128;45.582;5.298;2022-11-15T07:19:04;12.93;;;6.70;;
33826;SDS011;20128;45.582;5.298;2022-11-15T07:21:29;11.82;;;6.70;;
33826;SDS011;20128;45.582;5.298;2022-11-15T07:23:55;15.93;;;7.35;;
33826;SDS011;20128;45.582;5.298;2022-11-15T07:26:21;13.43;;;6.55;;
33826;SDS011;20128;45.582;5.298;2022-11-15T07:28:46;14.40;;;6.32;;
33826;SDS011;20128;45.582;5.298;2022-11-15T07:31:12;15.25;;;6.10;;
33826;SDS011;20128;45.582;5.298;2022-11-15T07:33:38;13.73;;;6.03;;
33826;SDS011;20128;45.582;5.298;2022-11-15T07:36:05;12.93;;;6.95;;
33826;SDS011;20128;45.582;5.298;2022-11-15T07:38:31;9.95;;;5.95;;
33826;SDS011;20128;45.582;5.298;2022-11-15T07:40:58;14.32;;;6.35;;
33826;SDS011;20128;45.582;5.298;2022-11-15T07:43:26;12.82;;;6.68;;
33826;SDS011;20128;45.582;5.298;2022-11-15T07:45:57;8.63;;;5.43;;
33826;SDS011;20128;45.582;5.298;2022-11-15T07:48:23;9.43;;;5.43;;
33826;SDS011;20128;45.582;5.298;2022-11-15T07:50:49;7.75;;;5.60;;
33826;SDS011;20128;45.582;5.298;2022-11-15T07:53:16;13.52;;;6.50;;
33826;SDS011;20128;45.582;5.298;2022-11-15T07:55:41;8.80;;;5.47;;
33826;SDS011;20128;45.582;5.298;2022-11-15T07:58:08;9.40;;;6.93;;
33826;SDS011;20128;45.582;5.298;2022-11-15T08:00:36;9.02;;;5.50;;
33826;SDS011;20128;45.582;5.298;2022-11-15T08:03:12;15.27;;;6.28;;
33826;SDS011;20128;45.582;5.298;2022-11-15T08:05:41;9.95;;;6.40;;
33826;SDS011;20128;45.582;5.298;2022-11-15T08:08:14;10.00;;;6.28;;
33826;SDS011;20128;45.582;5.298;2022-11-15T08:10:40;12.63;;;5.95;;
33826;SDS011;20128;45.582;5.298;2022-11-15T08:13:07;10.93;;;6.47;;
33826;SDS011;20128;45.582;5.298;2022-11-15T08:15:34;10.48;;;6.90;;
33826;SDS011;20128;45.582;5.298;2022-11-15T08:18:03;11.55;;;6.45;;
33826;SDS011;20128;45.582;5.298;2022-11-15T08:20:31;17.88;;;7.93;;
33826;SDS011;20128;45.582;5.298;2022-11-15T08:22:57;16.17;;;8.43;;
33826;SDS011;20128;45.582;5.298;2022-11-15T08:25:25;15.68;;;7.95;;
33826;SDS011;20128;45.582;5.298;2022-11-15T08:27:52;15.65;;;6.82;;
33826;SDS011;20128;45.582;5.298;2022-11-15T08:30:22;13.98;;;7.40;;
33826;SDS011;20128;45.582;5.298;2022-11-15T08:32:49;10.60;;;6.53;;
33826;SDS011;20128;45.582;5.298;2022-11-15T08:35:15;13.05;;;6.95;;
33826;SDS011;20128;45.582;5.298;2022-11-15T08:37:41;13.15;;;7.30;;
33826;SDS011;20128;45.582;5.298;2022-11-15T08:40:07;16.65;;;8.57;;
33826;SDS011;20128;45.582;5.298;2022-11-15T08:42:33;12.38;;;7.45;;
33826;SDS011;20128;45.582;5.298;2022-11-15T08:44:59;12.15;;;7.40;;
33826;SDS011;20128;45.582;5.298;2022-11-15T08:47:24;11.27;;;7.03;;
33826;SDS011;20128;45.582;5.298;2022-11-15T08:49:50;12.20;;;6.60;;
33826;SDS011;20128;45.582;5.298;2022-11-15T08:52:16;11.68;;;5.63;;
33826;SDS011;20128;45.582;5.298;2022-11-15T08:54:41;12.98;;;6.15;;
33826;SDS011;20128;45.582;5.298;2022-11-15T08:57:07;10.50;;;6.32;;
33826;SDS011;20128;45.582;5.298;2022-11-15T08:59:34;7.95;;;5.90;;
33826;SDS011;20128;45.582;5.298;2022-11-15T09:02:01;9.63;;;6.38;;
33826;SDS011;20128;45.582;5.298;2022-11-15T09:04:26;14.60;;;6.10;;
33826;SDS011;20128;45.582;5.298;2022-11-15T09:06:52;15.05;;;6.70;;
33826;SDS011;20128;45.582;5.298;2022-11-15T09:09:18;13.63;;;4.93;;
33826;SDS011;20128;45.582;5.298;2022-11-15T09:11:44;12.38;;;5.10;;
33826;SDS011;20128;45.582;5.298;2022-11-15T09:14:12;11.90;;;6.72;;
33826;SDS011;20128;45.582;5.298;2022-11-15T09:16:38;10.45;;;5.25;;
33826;SDS011;20128;45.582;5.298;2022-11-15T09:19:04;11.10;;;5.82;;
33826;SDS011;20128;45.582;5.298;2022-11-15T09:21:30;18.17;;;5.93;;
33826;SDS011;20128;45.582;5.298;2022-11-15T09:23:56;15.35;;;5.78;;
33826;SDS011;20128;45.582;5.298;2022-11-15T09:26:22;9.25;;;4.78;;
33826;SDS011;20128;45.582;5.298;2022-11-15T09:28:48;17.95;;;5.43;;
33826;SDS011;20128;45.582;5.298;2022-11-15T09:31:13;9.38;;;4.72;;
33826;SDS011;20128;45.582;5.298;2022-11-15T09:33:39;7.57;;;4.75;;
33826;SDS011;20128;45.582;5.298;2022-11-15T09:36:06;19.08;;;5.82;;
33826;SDS011;20128;45.582;5.298;2022-11-15T09:38:33;14.35;;;5.40;;
33826;SDS011;20128;45.582;5.298;2022-11-15T09:41:08;10.60;;;5.22;;
33826;SDS011;20128;45.582;5.298;2022-11-15T09:49:38;8.88;;;4.32;;
33826;SDS011;20128;45.582;5.298;2022-11-15T09:52:04;12.57;;;5.38;;
33826;SDS011;20128;45.582;5.298;2022-11-15T09:54:36;11.93;;;4.28;;
33826;SDS011;20128;45.582;5.298;2022-11-15T09:57:14;9.60;;;4.75;;
33826;SDS011;20128;45.582;5.298;2022-11-15T10:02:24;15.00;;;4.65;;
33826;SDS011;20128;45.582;5.298;2022-11-15T10:04:56;10.23;;;4.18;;
33826;SDS011;20128;45.582;5.298;2022-11-15T10:10:27;14.13;;;4.65;;
33826;SDS011;20128;45.582;5.298;2022-11-15T10:13:01;11.13;;;5.15;;
33826;SDS011;20128;45.582;5.298;2022-11-15T10:15:28;8.77;;;5.13;;
33826;SDS011;20128;45.582;5.298;2022-11-15T10:20:26;10.40;;;4.20;;
33826;SDS011;20128;45.582;5.298;2022-11-15T10:22:55;6.18;;;3.78;;
33826;SDS011;20128;45.582;5.298;2022-11-15T10:27:55;13.05;;;6.00;;
33826;SDS011;20128;45.582;5.298;2022-11-15T10:30:31;13.23;;;4.45;;
33826;SDS011;20128;45.582;5.298;2022-11-15T10:41:35;8.00;;;4.57;;
33826;SDS011;20128;45.582;5.298;2022-11-15T10:44:14;43.28;;;6.85;;
33826;SDS011;20128;45.582;5.298;2022-11-15T10:46:46;25.03;;;5.17;;
33826;SDS011;20128;45.582;5.298;2022-11-15T10:49:19;19.83;;;4.80;;
33826;SDS011;20128;45.582;5.298;2022-11-15T10:51:47;11.15;;;3.78;;
33826;SDS011;20128;45.582;5.298;2022-11-15T10:57:07;11.20;;;3.85;;
33826;SDS011;20128;45.582;5.298;2022-11-15T10:59:39;11.40;;;3.83;;
33826;SDS011;20128;45.582;5.298;2022-11-15T11:05:03;10.65;;;4.30;;
33826;SDS011;20128;45.582;5.298;2022-11-15T11:07:32;11.45;;;4.40;;
33826;SDS011;20128;45.582;5.298;2022-11-15T11:10:17;7.40;;;4.18;;
33826;SDS011;20128;45.582;5.298;2022-11-15T11:12:44;5.78;;;3.80;;
33826;SDS011;20128;45.582;5.298;2022-11-15T11:15:11;5.72;;;4.15;;
33826;SDS011;20128;45.582;5.298;2022-11-15T11:25:58;9.75;;;4.03;;
33826;SDS011;20128;45.582;5.298;2022-11-15T11:37:34;14.05;;;7.10;;
33826;SDS011;20128;45.582;5.298;2022-11-15T11:40:35;19.77;;;9.45;;
33826;SDS011;20128;45.582;5.298;2022-11-15T11:48:47;30.40;;;15.05;;
33826;SDS011;20128;45.582;5.298;2022-11-15T11:51:34;10.15;;;5.53;;
33826;SDS011;20128;45.582;5.298;2022-11-15T11:56:47;9.57;;;4.30;;
33826;SDS011;20128;45.582;5.298;2022-11-15T12:01:52;9.25;;;4.47;;
33826;SDS011;20128;45.582;5.298;2022-11-15T12:09:23;9.45;;;4.97;;
33826;SDS011;20128;45.582;5.298;2022-11-15T12:15:22;8.45;;;5.13;;
33826;SDS011;20128;45.582;5.298;2022-11-15T12:17:54;8.38;;;4.13;;
33826;SDS011;20128;45.582;5.298;2022-11-15T12:20:26;6.80;;;3.90;;
33826;SDS011;20128;45.582;5.298;2022-11-15T12:25:52;8.75;;;3.35;;
33826;SDS011;20128;45.582;5.298;2022-11-15T12:28:41;8.63;;;3.10;;
33826;SDS011;20128;45.582;5.298;2022-11-15T12:31:23;7.53;;;2.83;;
33826;SDS011;20128;45.582;5.298;2022-11-15T12:34:00;7.72;;;2.92;;
33826;SDS011;20128;45.582;5.298;2022-11-15T12:36:40;7.22;;;3.85;;
33826;SDS011;20128;45.582;5.298;2022-11-15T12:39:09;8.80;;;4.35;;
33826;SDS011;20128;45.582;5.298;2022-11-15T12:41:37;8.80;;;4.00;;
33826;SDS011;20128;45.582;5.298;2022-11-15T12:44:09;10.57;;;4.70;;
33826;SDS011;20128;45.582;5.298;2022-11-15T12:49:10;7.72;;;4.45;;
33826;SDS011;20128;45.582;5.298;2022-11-15T13:04:46;6.50;;;2.88;;
33826;SDS011;20128;45.582;5.298;2022-11-15T13:09:59;8.02;;;3.08;;
33826;SDS011;20128;45.582;5.298;2022-11-15T13:17:38;6.38;;;3.60;;
33826;SDS011;20128;45.582;5.298;2022-11-15T13:30:36;7.53;;;3.50;;
33826;SDS011;20128;45.582;5.298;2022-11-15T13:33:09;8.95;;;3.50;;
33826;SDS011;20128;45.582;5.298;2022-11-15T13:35:40;8.65;;;3.30;;
33826;SDS011;20128;45.582;5.298;2022-11-15T13:38:11;11.43;;;3.85;;
33826;SDS011;20128;45.582;5.298;2022-11-15T13:40:52;9.52;;;3.25;;
33826;SDS011;20128;45.582;5.298;2022-11-15T13:46:10;9.02;;;3.38;;
33826;SDS011;20128;45.582;5.298;2022-11-15T13:48:36;5.95;;;3.60;;
33826;SDS011;20128;45.582;5.298;2022-11-15T13:51:08;15.38;;;4.15;;
33826;SDS011;20128;45.582;5.298;2022-11-15T13:53:40;18.45;;;4.43;;
33826;SDS011;20128;45.582;5.298;2022-11-15T13:56:11;9.25;;;3.70;;
33826;SDS011;20128;45.582;5.298;2022-11-15T13:58:38;21.40;;;4.70;;
33826;SDS011;20128;45.582;5.298;2022-11-15T14:01:05;9.48;;;3.40;;
33826;SDS011;20128;45.582;5.298;2022-11-15T14:03:32;10.63;;;3.38;;
33826;SDS011;20128;45.582;5.298;2022-11-15T14:06:12;6.28;;;2.88;;
33826;SDS011;20128;45.582;5.298;2022-11-15T14:09:01;10.27;;;3.10;;
33826;SDS011;20128;45.582;5.298;2022-11-15T14:11:27;11.43;;;3.40;;
33826;SDS011;20128;45.582;5.298;2022-11-15T14:16:37;26.98;;;10.27;;
33826;SDS011;20128;45.582;5.298;2022-11-15T14:19:04;23.45;;;12.90;;
33826;SDS011;20128;45.582;5.298;2022-11-15T14:21:31;23.98;;;5.22;;
33826;SDS011;20128;45.582;5.298;2022-11-15T14:26:42;22.10;;;8.80;;
33826;SDS011;20128;45.582;5.298;2022-11-15T14:29:27;37.03;;;16.52;;
33826;SDS011;20128;45.582;5.298;2022-11-15T14:31:55;38.50;;;14.25;;
33826;SDS011;20128;45.582;5.298;2022-11-15T14:34:41;21.42;;;8.38;;
33826;SDS011;20128;45.582;5.298;2022-11-15T14:37:11;11.85;;;4.97;;
33826;SDS011;20128;45.582;5.298;2022-11-15T14:40:00;8.55;;;3.63;;
33826;SDS011;20128;45.582;5.298;2022-11-15T14:42:28;12.70;;;4.32;;
33826;SDS011;20128;45.582;5.298;2022-11-15T14:44:54;20.67;;;11.25;;
33826;SDS011;20128;45.582;5.298;2022-11-15T14:47:19;11.63;;;5.88;;
33826;SDS011;20128;45.582;5.298;2022-11-15T14:49:45;10.40;;;6.15;;
33826;SDS011;20128;45.582;5.298;2022-11-15T14:52:44;13.00;;;6.95;;
33826;SDS011;20128;45.582;5.298;2022-11-15T14:55:04;19.35;;;5.43;;
33826;SDS011;20128;45.582;5.298;2022-11-15T14:57:49;10.10;;;3.88;;
33826;SDS011;20128;45.582;5.298;2022-11-15T15:00:17;11.75;;;3.08;;
33826;SDS011;20128;45.582;5.298;2022-11-15T15:02:44;15.88;;;3.97;;
33826;SDS011;20128;45.582;5.298;2022-11-15T15:07:42;13.50;;;3.55;;
33826;SDS011;20128;45.582;5.298;2022-11-15T15:10:08;7.88;;;3.35;;
33826;SDS011;20128;45.582;5.298;2022-11-15T15:12:34;6.25;;;3.30;;
33826;SDS011;20128;45.582;5.298;2022-11-15T15:15:00;6.05;;;3.72;;
33826;SDS011;20128;45.582;5.298;2022-11-15T15:17:25;10.73;;;3.70;;
33826;SDS011;20128;45.582;5.298;2022-11-15T15:19:51;13.75;;;5.35;;
33826;SDS011;20128;45.582;5.298;2022-11-15T15:22:17;11.65;;;4.35;;
33826;SDS011;20128;45.582;5.298;2022-11-15T15:24:46;9.82;;;4.20;;
33826;SDS011;20128;45.582;5.298;2022-11-15T15:27:12;7.95;;;3.85;;
33826;SDS011;20128;45.582;5.298;2022-11-15T15:29:38;8.50;;;3.88;;
33826;SDS011;20128;45.582;5.298;2022-11-15T15:32:05;8.02;;;3.95;;
33826;SDS011;20128;45.582;5.298;2022-11-15T15:34:31;10.80;;;4.50;;
33826;SDS011;20128;45.582;5.298;2022-11-15T15:40:01;12.23;;;4.65;;
33826;SDS011;20128;45.582;5.298;2022-11-15T15:42:27;12.18;;;4.88;;
33826;SDS011;20128;45.582;5.298;2022-11-15T15:44:52;15.38;;;4.82;;
33826;SDS011;20128;45.582;5.298;2022-11-15T15:47:19;13.13;;;4.90;;
33826;SDS011;20128;45.582;5.298;2022-11-15T15:49:47;16.17;;;4.03;;
33826;SDS011;20128;45.582;5.298;2022-11-15T15:52:13;12.10;;;5.10;;
33826;SDS011;20128;45.582;5.298;2022-11-15T15:54:39;13.80;;;7.03;;
33826;SDS011;20128;45.582;5.298;2022-11-15T15:57:05;22.10;;;11.77;;
33826;SDS011;20128;45.582;5.298;2022-11-15T15:59:32;17.08;;;9.23;;
33826;SDS011;20128;45.582;5.298;2022-11-15T16:01:57;16.50;;;8.43;;
33826;SDS011;20128;45.582;5.298;2022-11-15T16:04:23;12.00;;;7.63;;
33826;SDS011;20128;45.582;5.298;2022-11-15T16:06:49;14.65;;;8.60;;
33826;SDS011;20128;45.582;5.298;2022-11-15T16:09:18;19.02;;;9.25;;
33826;SDS011;20128;45.582;5.298;2022-11-15T16:12:07;16.30;;;8.98;;
33826;SDS011;20128;45.582;5.298;2022-11-15T16:14:33;11.32;;;7.57;;
33826;SDS011;20128;45.582;5.298;2022-11-15T16:16:58;16.52;;;8.27;;
33826;SDS011;20128;45.582;5.298;2022-11-15T16:19:24;9.32;;;6.57;;
33826;SDS011;20128;45.582;5.298;2022-11-15T16:21:50;9.23;;;7.15;;
33826;SDS011;20128;45.582;5.298;2022-11-15T16:24:17;10.63;;;7.47;;
33826;SDS011;20128;45.582;5.298;2022-11-15T16:26:43;16.30;;;7.35;;
33826;SDS011;20128;45.582;5.298;2022-11-15T16:29:09;17.95;;;6.20;;
33826;SDS011;20128;45.582;5.298;2022-11-15T16:31:35;11.20;;;7.47;;
33826;SDS011;20128;45.582;5.298;2022-11-15T16:34:01;24.70;;;8.52;;
33826;SDS011;20128;45.582;5.298;2022-11-15T16:36:29;15.75;;;7.95;;
33826;SDS011;20128;45.582;5.298;2022-11-15T16:38:57;15.68;;;6.90;;
33826;SDS011;20128;45.582;5.298;2022-11-15T16:41:23;16.45;;;7.32;;
33826;SDS011;20128;45.582;5.298;2022-11-15T16:43:49;20.15;;;7.20;;
33826;SDS011;20128;45.582;5.298;2022-11-15T16:46:19;13.10;;;6.35;;
33826;SDS011;20128;45.582;5.298;2022-11-15T16:48:52;12.00;;;6.13;;
33826;SDS011;20128;45.582;5.298;2022-11-15T16:51:18;12.93;;;6.10;;
33826;SDS011;20128;45.582;5.298;2022-11-15T16:53:44;13.15;;;6.35;;
33826;SDS011;20128;45.582;5.298;2022-11-15T16:56:17;13.10;;;5.45;;
33826;SDS011;20128;45.582;5.298;2022-11-15T17:01:14;11.70;;;6.07;;
33826;SDS011;20128;45.582;5.298;2022-11-15T17:03:48;10.55;;;5.88;;
33826;SDS011;20128;45.582;5.298;2022-11-15T17:06:13;9.40;;;5.97;;
33826;SDS011;20128;45.582;5.298;2022-11-15T17:08:40;14.20;;;5.93;;
33826;SDS011;20128;45.582;5.298;2022-11-15T17:11:09;14.70;;;6.18;;
33826;SDS011;20128;45.582;5.298;2022-11-15T17:13:35;10.23;;;5.38;;
33826;SDS011;20128;45.582;5.298;2022-11-15T17:16:19;12.68;;;5.18;;
33826;SDS011;20128;45.582;5.298;2022-11-15T17:18:49;24.27;;;5.68;;